NY Terminal Aviation Weather Discussion (AFD) - Prepared: 357 PM EST THU NOV 27 2014
HIGH PRESSURE BUILDS IN THROUGH TONIGHT WITH A SURFACE TROUGH 
NEARBY. 

MODERATE CONFIDENCE IN FLIGHT CATEGORIES. LOOKS LIKE VFR WILL 
PREVAIL...BUT WITH TEMPO MVFR. IT IS POSSIBLE THAT MVFR PREVAILS 
INSTEAD...WITH TEMPO VFR. AFTER AROUND 01Z-03Z CONFIDENCE OF 
PREVAILING VFR INCREASES.

WINDS PRIMARILY BELOW 10 KT. DIRECTION SHOULD FAVOR NORTH OF 310
MAGNETIC. HOWEVER...AT KEWR...IT PROBABLY FAVORS SOUTH OF 310.

FOR FRIDAY...VFR AND NW WINDS 10-15 KT WITH GUSTS AROUND 20 KT.

5 Day General Aviation Outlook:

.OUTLOOK FOR 18Z FRI THROUGH TUE...
.FRI-SUN...VFR.
.SUN NIGHT-MON...MVFR POSSIBLE WITH A CHANCE OF RAIN SHOWERS.
.TUE...VFR.


NY Metro Terminal Aviation Weather Summary: (Explanation of Color Coding)
NOTE: All Wind Directions are TRUE (add 13 degrees for magnetic directions). Tail and Crosswind Calculations do account for the magnetic deviation of runways.

Click on the Airport Below for Specific Information at that Terminal

TAF Overview JFK TAF LGA TAF EWR TAF TEB TAF HPN TAF ISP TAF

Jump to AirSpace Impacts Section Condensed "lite" version of SPA page
**************************************************************************************
KJFK Terminal Weather: (Wind Directions Are True, Except Where Noted, ADD 13 degrees for Magnetic)

5MIN KJFK 272150Z 30009KT 10SM OVC021 03/M01 A3002 -70 
     72 -1400 310/09 RMK AO2 SLP164 T00331011 $
5MIN KJFK 272145Z 31009KT 10SM BKN023 OVC034 03/M01 
     A3002 -70 72 -1400 320/09 RMK AO2 SLP163 T00331011 $
********************************************
****        MAGNETIC DIRECTIONS         ****
********************************************
KJFK 11/27/2014 22:05:25 GMT 300 10 KT
KJFK 11/27/2014 22:03:25 GMT 320 09 KT
KJFK 11/27/2014 22:01:25 GMT 320 09 KT
KJFK 11/27/2014 21:59:25 GMT 310 08 KT
KJFK 11/27/2014 21:57:25 GMT 320 09 KT
KJFK 11/27/2014 21:55:25 GMT 330 08 KT
KJFK 11/27/2014 21:53:25 GMT 330 09 KT
KJFK 11/27/2014 21:51:25 GMT 320 09 KT
KJFK 11/27/2014 21:49:25 GMT 320 10 KT
KJFK 11/27/2014 21:47:25 GMT 330 09 KT
SAUS70 KJFK 272200 RRL
METAR KJFK 272151Z 30009KT 10SM OVC021 03/M01 A3002 RMK AO2 SLP164
     T00331011 $
FTNA35 KJFK 272039
KJFK 272030Z 2721/2824 32008KT P6SM SCT020 BKN040
     TEMPO 2721/2801 BKN020
     FM280500 31010KT P6SM SCT050 SCT080
     FM281400 31014G20KT P6SM FEW040
KJFK Forecaster Comments Not Available at This Time
jfk

JFK Hourly Forecast Temperature (C)

JFK Hourly TMPS
**************************************************************************************
KLGA Terminal Weather: (Wind Directions Are True, Except Where Noted, ADD 13 degrees for Magnetic)

5MIN KLGA 272150Z 32011KT 10SM BKN018 OVC038 03/M01 
     A3001 -50 79 -1500 330/11 RMK AO2 SLP160 T00281006
5MIN KLGA 272145Z 31008KT 10SM OVC018 03/M01 A3000 -50 
     76 -1400 320/08 RMK AO2 SLP159 T00331006
********************************************
****        MAGNETIC DIRECTIONS         ****
********************************************
KLGA 11/27/2014 22:05:53 GMT 330 13 KT
KLGA 11/27/2014 22:03:53 GMT 340 12 KT
KLGA 11/27/2014 22:01:53 GMT 340 11 KT
KLGA 11/27/2014 21:59:53 GMT 340 12 KT
KLGA 11/27/2014 21:57:53 GMT 340 12 KT
KLGA 11/27/2014 21:55:53 GMT 330 11 KT
KLGA 11/27/2014 21:53:52 GMT 330 13 KT
KLGA 11/27/2014 21:51:52 GMT 330 12 KT
KLGA 11/27/2014 21:49:53 GMT 330 11 KT
KLGA 11/27/2014 21:47:53 GMT 320 11 KT
SAUS70 KLGA 272200
METAR KLGA 272151Z 31012KT 10SM BKN018 OVC038 03/M01 A3001 RMK AO2
     SLP160 T00331006
FTUS31 KLGA 272033 AAA
KLGA 272030Z 2721/2818 32008KT P6SM SCT020 BKN040
      TEMPO 2721/2801 BKN020
     FM280500 32010KT P6SM SCT050 SCT080
     FM281400 32014G20KT P6SM FEW040
KLGA Forecaster Comments Not Available at This Time
lga


**************************************************************************************

KEWR Terminal Weather: (Wind Directions Are True, Except Where Noted, ADD 13 degrees for Magnetic)

5MIN KEWR 272200Z 30008KT 10SM BKN026 BKN050 BKN130 
     02/M02 A3002 -70 72 -1600 310/08 RMK AO2 $
5MIN KEWR 272155Z 31007KT 10SM BKN026 BKN050 BKN130 
     03/M02 A3002 -70 69 -1500 320/07 RMK AO2 $
********************************************
****        MAGNETIC DIRECTIONS         ****
********************************************
KEWR 11/27/2014 22:05:33 GMT 330 08 KT
KEWR 11/27/2014 22:03:33 GMT 330 08 KT
KEWR 11/27/2014 22:01:33 GMT 340 10 KT
KEWR 11/27/2014 21:59:33 GMT 330 09 KT
KEWR 11/27/2014 21:57:33 GMT 340 10 KT
KEWR 11/27/2014 21:55:33 GMT 340 10 KT
KEWR 11/27/2014 21:53:33 GMT 340 10 KT
KEWR 11/27/2014 21:51:33 GMT 340 09 KT
KEWR 11/27/2014 21:49:33 GMT 340 09 KT
KEWR 11/27/2014 21:47:33 GMT 340 09 KT
SAUS70 KEWR 272200
METAR KEWR 272151Z 32009KT 10SM BKN026 BKN050 BKN130 03/M02 A3002 RMK
     AO2 SLP165 T00281022 $
FTUS31 KEWR 272033 AAA
KEWR 272030Z 2721/2824 30006KT P6SM SCT020 BKN040
      TEMPO 2721/2801 BKN020
     FM280400 30009KT P6SM SCT050 SCT080
     FM281400 31014G21KT P6SM SCT040
KEWR Forecaster Comments Not Available at This Time
ewr
Afternoon EWR Haze Potential Forecast: KEWR Haze Forecast Not Available at This Time
IS NOT AVAILABLE AT THIS TIME


******************************************************************************

KTEB Terminal Weather:
SAUS80 KTEB 272200
METAR KTEB 272151Z 30007KT 10SM OVC024 03/M02 A3001 RMK AO2 SLP160
     T00281017 $
FTUS31 KTEB 272033 AAA
KTEB 272030Z 2721/2818 31006KT P6SM SCT020 BKN040
      TEMPO 2721/2801 BKN020
     FM280400 31007KT P6SM SCT050 SCT080
     FM281400 31012G19KT P6SM SCT040
KTEB Forecaster Comments Not Available at This Time
teb

 


**************************************************************************************

KHPN Terminal Weather:
SAUS70 KHPN 272200 RRA
METAR KHPN 272156Z 33006KT 10SM BKN018 BKN040 01/M02 A2998 RMK AO2
     SLP159 T00111017
FTUS41 KHPN 272033 AAA
KHPN 272030Z 2721/2818 32007KT P6SM SCT020 BKN040
      TEMPO 2721/2801 BKN020
     FM280500 32007KT P6SM SCT040 SCT070
     FM281400 32013G19KT P6SM SCT040 AMD NOT SKED
KHPN Forecaster Comments Not Available at This Time
HPN


******************************************************************************

KISP Terminal Weather:
SAUS70 KISP 272200 RRA
METAR KISP 272156Z 32007KT 10SM OVC022 03/M01 A2998 RMK AO2 SLP151
     T00331011
FTUS51 KISP 272033 AAA
KISP 272030Z 2721/2818 33007KT P6SM BKN020
     FM280000 32007KT P6SM SCT020 BKN040
     FM280600 32008KT P6SM SCT050 SCT080
     FM281400 32013G19KT P6SM FEW040
KISP Forecaster Comments Not Available at This Time
ISP

 


ZNY SWAP Season Information

(ZNY SWAP STATEMENT) (Click for PDF File) (ZNY BRIEFING) (Click for PDF File)

*******************************************************
***        NY AIR ROUTE TRAFFIC CONTROL CENTER      ***
***                DAILY SWAP STATEMENT             ***
*******************************************************
NY AIR ROUTE TRAFFIC CONTROL CENTER
DAILY SWAP STATEMENT
SUNDAY OCTOBER 26, 2014
ROUTINE SWAP STATEMENTS ARE ISSUED 
BETWEEN APRIL 1 AND SEPTEMBER 30.
SWAP STATEMENTS WILL BE ISSUED IF TS ARE 
EXPECTED TO IMPACT OPERATIONS.
$$



N90 AirSpace Impacts

N90 Compression Forecast

N90 Compression Forecast

N90 Icing Forecast

N90 Icing Forecast

N90 Thunderstorm Forecast (Issued if Expected)

N90 Day 2 SWAP Outlook

 

Surface Weather Map

Surface Weather map

National Collaborative Convective Forecast Product (CCFP) Forecasts (Mar-Oct)


Vertical Wind Profile
Untitled Document